createdAt,value
2023-01-29T00:00:10.038Z,-0.20
2023-01-29T00:02:37.096Z,-0.20
2023-01-29T00:05:26.080Z,-0.20
2023-01-29T00:07:54.187Z,-0.20
2023-01-29T00:10:21.725Z,-0.20
2023-01-29T00:12:48.561Z,-0.20
2023-01-29T00:15:16.115Z,-0.20
2023-01-29T00:17:43.224Z,-0.30
2023-01-29T00:20:12.737Z,-0.30
2023-01-29T00:22:39.629Z,-0.30
2023-01-29T00:25:08.325Z,-0.30
2023-01-29T00:27:35.358Z,-0.20
2023-01-29T00:30:15.425Z,-0.30
2023-01-29T00:32:42.706Z,-0.20
2023-01-29T00:35:12.121Z,-0.20
2023-01-29T00:37:39.073Z,-0.20
2023-01-29T00:40:07.656Z,-0.20
2023-01-29T00:42:52.930Z,-0.20
2023-01-29T00:45:19.877Z,-0.30
2023-01-29T00:47:46.907Z,-0.40
2023-01-29T00:50:15.707Z,-0.30
2023-01-29T00:52:42.816Z,-0.40
2023-01-29T00:55:11.441Z,-0.50
2023-01-29T00:57:38.607Z,-0.50
2023-01-29T01:00:08.098Z,-0.50
2023-01-29T01:03:10.130Z,-0.50
2023-01-29T01:05:39.200Z,-0.50
2023-01-29T01:08:28.818Z,-0.50
2023-01-29T01:11:06.298Z,-0.50
2023-01-29T01:13:33.862Z,-0.50
2023-01-29T01:16:01.521Z,-0.40
2023-01-29T01:18:30.336Z,-0.30
2023-01-29T01:20:59.961Z,-0.30
2023-01-29T01:23:27.948Z,-0.30
2023-01-29T01:25:55.823Z,-0.30
2023-01-29T01:28:23.075Z,-0.20
2023-01-29T01:30:50.330Z,-0.20
2023-01-29T01:33:17.657Z,-0.20
2023-01-29T01:35:44.911Z,-0.20
2023-01-29T01:38:13.224Z,-0.20
2023-01-29T01:40:46.034Z,-0.20
2023-01-29T01:43:13.168Z,-0.30
2023-01-29T01:45:40.616Z,-0.30
2023-01-29T01:48:14.223Z,-0.30
2023-01-29T01:50:46.105Z,-0.30
2023-01-29T01:53:18.044Z,-0.30
2023-01-29T01:55:49.285Z,-0.30
2023-01-29T01:58:22.511Z,-0.30
2023-01-29T02:00:50.420Z,-0.30
2023-01-29T02:03:37.849Z,-0.20
2023-01-29T02:06:24.022Z,-0.20
2023-01-29T02:09:15.976Z,-0.10
2023-01-29T02:11:42.900Z,-0.20
2023-01-29T02:14:10.638Z,-0.10
2023-01-29T02:16:38.529Z,-0.10
2023-01-29T02:19:14.492Z,0.00
2023-01-29T02:21:57.712Z,0.00
2023-01-29T02:25:10.105Z,0.00
2023-01-29T02:28:12.197Z,0.00
2023-01-29T02:30:43.004Z,0.10
2023-01-29T02:33:21.406Z,0.00
2023-01-29T02:35:59.038Z,0.00
2023-01-29T02:38:34.427Z,0.00
2023-01-29T02:41:05.376Z,0.10
2023-01-29T02:43:44.812Z,0.10
2023-01-29T02:46:19.101Z,0.10
2023-01-29T02:48:53.992Z,0.10
2023-01-29T02:51:27.059Z,0.10
2023-01-29T02:54:02.851Z,0.10
2023-01-29T02:56:36.838Z,0.10
2023-01-29T02:59:08.265Z,0.10
2023-01-29T03:01:40.429Z,0.10
2023-01-29T03:04:11.875Z,0.10
2023-01-29T03:06:43.189Z,0.10
2023-01-29T03:09:17.012Z,0.10
2023-01-29T03:11:48.722Z,0.10
2023-01-29T03:14:24.593Z,0.10
2023-01-29T03:16:53.450Z,0.20
2023-01-29T03:19:28.788Z,0.20
2023-01-29T03:22:00.732Z,0.20
2023-01-29T03:24:54.584Z,0.20
2023-01-29T03:27:43.613Z,0.20
2023-01-29T03:30:35.124Z,0.20
2023-01-29T03:33:05.870Z,0.20
2023-01-29T03:35:39.899Z,0.20
2023-01-29T03:38:11.869Z,0.20
2023-01-29T03:40:46.165Z,0.20
2023-01-29T03:43:23.725Z,0.10
2023-01-29T03:46:02.044Z,0.10
2023-01-29T03:48:35.551Z,0.10
2023-01-29T03:51:12.093Z,0.00
2023-01-29T03:53:46.489Z,0.00
2023-01-29T03:56:27.384Z,0.10
2023-01-29T03:58:58.980Z,0.00
2023-01-29T04:01:31.983Z,0.10
2023-01-29T04:04:05.543Z,0.10
2023-01-29T04:06:36.028Z,0.20
2023-01-29T04:09:06.268Z,0.10
2023-01-29T04:11:38.148Z,0.20
2023-01-29T04:14:07.241Z,0.20
2023-01-29T04:16:41.372Z,0.10
2023-01-29T04:19:08.592Z,0.10
2023-01-29T04:21:37.754Z,0.10
2023-01-29T04:24:06.302Z,0.10
2023-01-29T04:26:50.568Z,0.00
2023-01-29T04:29:38.454Z,-0.10
2023-01-29T04:32:15.206Z,-0.10
2023-01-29T04:34:52.632Z,-0.20
2023-01-29T04:37:28.250Z,-0.20
2023-01-29T04:39:59.681Z,-0.20
2023-01-29T04:42:31.737Z,-0.20
2023-01-29T04:45:03.661Z,-0.20
2023-01-29T04:47:36.965Z,-0.30
2023-01-29T04:50:13.642Z,-0.30
2023-01-29T04:52:49.519Z,-0.30
2023-01-29T04:55:22.356Z,-0.30
2023-01-29T04:57:55.924Z,-0.40
2023-01-29T05:00:27.984Z,-0.40
2023-01-29T05:02:57.041Z,-0.20
2023-01-29T05:05:24.197Z,-0.40
2023-01-29T05:07:51.517Z,-0.40
2023-01-29T05:10:20.832Z,-0.40
2023-01-29T05:12:51.314Z,-0.40
2023-01-29T05:15:25.467Z,-0.40
2023-01-29T05:17:53.943Z,-0.30
2023-01-29T05:20:22.770Z,-0.40
2023-01-29T05:22:49.920Z,-0.30
2023-01-29T05:25:22.484Z,-0.40
2023-01-29T05:28:06.434Z,-0.40
2023-01-29T05:30:35.523Z,-0.40
2023-01-29T05:33:02.944Z,-0.40
2023-01-29T05:35:31.825Z,-0.30
2023-01-29T05:37:58.966Z,-0.40
2023-01-29T05:40:26.228Z,-0.40
2023-01-29T05:42:53.131Z,-0.40
2023-01-29T05:45:21.075Z,-0.30
2023-01-29T05:47:48.034Z,-0.30
2023-01-29T05:50:16.530Z,-0.20
2023-01-29T05:52:44.930Z,-0.30
2023-01-29T05:55:12.222Z,-0.20
2023-01-29T05:57:40.891Z,-0.20
2023-01-29T06:00:10.039Z,-0.20
2023-01-29T06:02:36.942Z,-0.10
2023-01-29T06:05:04.640Z,-0.20
2023-01-29T06:07:31.588Z,-0.10
2023-01-29T06:10:00.589Z,-0.10
2023-01-29T06:12:27.988Z,-0.10
2023-01-29T06:14:55.242Z,-0.10
2023-01-29T06:17:22.180Z,-0.10
2023-01-29T06:19:49.180Z,0.00
2023-01-29T06:22:16.070Z,0.00
2023-01-29T06:24:43.398Z,0.10
2023-01-29T06:27:11.693Z,0.10
2023-01-29T06:29:39.126Z,0.20
2023-01-29T06:32:06.138Z,0.20
2023-01-29T06:34:33.463Z,0.10
2023-01-29T06:37:00.525Z,0.10
2023-01-29T06:39:27.832Z,0.10
2023-01-29T06:41:54.732Z,0.10
2023-01-29T06:44:23.457Z,0.10
2023-01-29T06:46:50.408Z,0.20
2023-01-29T06:49:17.602Z,0.20
2023-01-29T06:51:44.528Z,0.10
2023-01-29T06:54:11.596Z,0.10
2023-01-29T06:56:38.508Z,0.10
2023-01-29T06:59:06.433Z,0.20
2023-01-29T07:01:36.604Z,0.10
2023-01-29T07:04:04.392Z,0.20
2023-01-29T07:06:31.569Z,0.20
2023-01-29T07:08:58.824Z,0.20
2023-01-29T07:11:25.976Z,0.20
2023-01-29T07:13:52.860Z,0.20
2023-01-29T07:16:20.149Z,0.20
2023-01-29T07:18:48.428Z,0.20
2023-01-29T07:21:15.563Z,0.30
2023-01-29T07:23:42.465Z,0.20
2023-01-29T07:26:11.431Z,0.30
2023-01-29T07:28:39.536Z,0.30
2023-01-29T07:31:08.472Z,0.30
2023-01-29T07:33:35.504Z,0.20
2023-01-29T07:36:08.097Z,0.30
2023-01-29T07:38:35.032Z,0.30
2023-01-29T07:41:03.321Z,0.30
2023-01-29T07:43:30.717Z,0.30
2023-01-29T07:46:02.291Z,0.40
2023-01-29T07:48:29.279Z,0.40
2023-01-29T07:50:57.467Z,0.40
2023-01-29T07:53:26.047Z,0.30
2023-01-29T07:55:53.324Z,0.30
2023-01-29T07:58:20.535Z,0.40
2023-01-29T08:00:47.524Z,0.40
2023-01-29T08:03:16.363Z,0.40
2023-01-29T08:05:43.847Z,0.40
2023-01-29T08:08:11.216Z,0.40
2023-01-29T08:10:40.698Z,0.40
2023-01-29T08:13:08.484Z,0.40
2023-01-29T08:15:37.899Z,0.40
2023-01-29T08:18:06.191Z,0.50
2023-01-29T08:20:33.563Z,0.50
2023-01-29T08:23:01.700Z,0.50
2023-01-29T08:25:29.307Z,0.50
2023-01-29T08:27:59.277Z,0.50
2023-01-29T08:30:28.142Z,0.50
2023-01-29T08:32:55.177Z,0.60
2023-01-29T08:35:22.433Z,0.60
2023-01-29T08:37:56.617Z,0.60
2023-01-29T08:40:23.597Z,0.60
2023-01-29T08:42:50.926Z,0.60
2023-01-29T08:45:19.229Z,0.70
2023-01-29T08:47:47.077Z,0.70
2023-01-29T08:50:14.777Z,0.70
2023-01-29T08:52:42.004Z,0.70
2023-01-29T08:55:09.799Z,0.70
2023-01-29T08:57:37.249Z,0.70
2023-01-29T09:00:05.424Z,0.70
2023-01-29T09:02:33.884Z,0.70
2023-01-29T09:05:01.158Z,0.70
2023-01-29T09:07:29.908Z,0.70
2023-01-29T09:09:56.859Z,0.70
2023-01-29T09:12:23.814Z,0.70
2023-01-29T09:14:51.109Z,0.70
2023-01-29T09:17:18.006Z,0.80
2023-01-29T09:19:46.936Z,0.70
2023-01-29T09:22:13.838Z,0.60
2023-01-29T09:24:41.185Z,0.50
2023-01-29T09:27:10.016Z,0.70
2023-01-29T09:29:37.459Z,0.70
2023-01-29T09:32:04.871Z,0.70
2023-01-29T09:34:32.162Z,0.70
2023-01-29T09:37:00.395Z,0.80
2023-01-29T09:39:27.673Z,0.80
2023-01-29T09:42:02.094Z,0.70
2023-01-29T09:44:43.038Z,0.80
2023-01-29T09:47:14.676Z,0.80
2023-01-29T09:49:47.016Z,0.80
2023-01-29T09:52:20.014Z,0.70
2023-01-29T09:54:55.025Z,0.80
2023-01-29T09:57:27.237Z,0.80
2023-01-29T09:59:55.323Z,0.80
2023-01-29T10:02:41.642Z,0.80
2023-01-29T10:05:26.510Z,0.90
2023-01-29T10:08:14.676Z,0.90
2023-01-29T10:10:50.591Z,1.00
2023-01-29T10:13:27.534Z,1.00
2023-01-29T10:16:07.737Z,1.00
2023-01-29T10:19:11.353Z,1.10
2023-01-29T10:22:00.571Z,1.10
2023-01-29T10:24:38.672Z,1.10
2023-01-29T10:27:14.669Z,1.20
2023-01-29T10:29:43.594Z,1.20
2023-01-29T10:32:16.419Z,1.20
2023-01-29T10:34:48.738Z,1.20
2023-01-29T10:37:18.703Z,1.20
2023-01-29T10:39:47.770Z,1.30
2023-01-29T10:42:26.750Z,1.20
2023-01-29T10:45:21.300Z,1.20
2023-01-29T10:48:06.149Z,1.20
2023-01-29T10:50:47.445Z,1.30
2023-01-29T10:53:32.389Z,1.30
2023-01-29T10:56:22.285Z,1.30
2023-01-29T10:58:53.981Z,1.30
2023-01-29T11:01:21.154Z,1.30
2023-01-29T11:03:57.085Z,1.30
2023-01-29T11:06:28.502Z,1.30
2023-01-29T11:09:01.059Z,1.30
2023-01-29T11:11:36.286Z,1.40
2023-01-29T11:14:09.284Z,1.40
2023-01-29T11:16:41.344Z,1.40
2023-01-29T11:19:08.807Z,1.50
2023-01-29T11:21:53.207Z,1.50
2023-01-29T11:24:21.142Z,1.60
2023-01-29T11:26:51.057Z,1.60
2023-01-29T11:29:46.175Z,1.60
2023-01-29T11:32:15.675Z,1.60
2023-01-29T11:35:05.444Z,1.70
2023-01-29T11:37:35.149Z,1.60
2023-01-29T11:40:03.399Z,1.60
2023-01-29T11:42:33.785Z,1.60
2023-01-29T11:45:01.246Z,1.60
2023-01-29T11:47:29.934Z,1.70
2023-01-29T11:49:58.506Z,1.70
2023-01-29T11:52:34.926Z,1.70
2023-01-29T11:55:05.778Z,1.80
2023-01-29T11:57:37.066Z,1.80
2023-01-29T12:00:06.843Z,1.80
2023-01-29T12:02:37.136Z,1.70
2023-01-29T12:05:07.707Z,1.70
2023-01-29T12:07:40.698Z,1.70
2023-01-29T12:10:31.151Z,1.80
2023-01-29T12:13:06.750Z,1.80
2023-01-29T12:15:34.267Z,1.90
2023-01-29T12:18:13.355Z,2.00
2023-01-29T12:20:45.277Z,1.90
2023-01-29T12:23:25.635Z,1.90
2023-01-29T12:26:01.082Z,1.90
2023-01-29T12:28:42.641Z,1.90
2023-01-29T12:31:20.248Z,1.90
2023-01-29T12:33:52.498Z,2.00
2023-01-29T12:36:26.042Z,2.10
2023-01-29T12:38:53.931Z,2.00
2023-01-29T12:41:30.468Z,2.00
2023-01-29T12:44:03.810Z,2.10
2023-01-29T12:46:37.624Z,2.00
2023-01-29T12:49:13.819Z,2.00
2023-01-29T12:51:49.394Z,2.00
2023-01-29T12:54:23.660Z,2.00
2023-01-29T12:56:53.365Z,2.10
2023-01-29T12:59:29.348Z,2.10
2023-01-29T13:01:59.681Z,2.10
2023-01-29T13:04:36.867Z,2.20
2023-01-29T13:07:12.247Z,2.20
2023-01-29T13:09:45.597Z,2.20
2023-01-29T13:12:15.837Z,2.20
2023-01-29T13:14:48.024Z,2.20
2023-01-29T13:17:21.406Z,2.20
2023-01-29T13:19:51.808Z,2.20
2023-01-29T13:22:23.382Z,2.20
2023-01-29T13:25:03.619Z,2.10
2023-01-29T13:27:33.914Z,2.20
2023-01-29T13:30:03.625Z,2.30
2023-01-29T13:32:32.394Z,2.30
2023-01-29T13:35:02.875Z,2.30
2023-01-29T13:37:32.932Z,2.30
2023-01-29T13:40:02.701Z,2.30
2023-01-29T13:42:40.668Z,2.20
2023-01-29T13:45:20.385Z,2.30
2023-01-29T13:47:48.385Z,2.30
2023-01-29T13:50:24.994Z,2.30
2023-01-29T13:52:57.243Z,2.30
2023-01-29T13:55:31.623Z,2.40
2023-01-29T13:57:59.424Z,2.40
2023-01-29T14:00:58.990Z,2.40
2023-01-29T14:04:04.560Z,2.50
2023-01-29T14:06:52.643Z,2.40
2023-01-29T14:09:56.631Z,2.50
2023-01-29T14:12:36.780Z,2.40
2023-01-29T14:15:20.821Z,2.40
2023-01-29T14:18:21.445Z,2.50
2023-01-29T14:20:59.043Z,2.40
2023-01-29T14:23:36.564Z,2.50
2023-01-29T14:26:06.461Z,2.50
2023-01-29T14:28:35.225Z,2.50
2023-01-29T14:31:03.886Z,2.40
2023-01-29T14:33:37.481Z,2.50
2023-01-29T14:36:06.973Z,2.50
2023-01-29T14:38:35.019Z,2.60
2023-01-29T14:41:15.856Z,2.60
2023-01-29T14:43:42.939Z,2.50
2023-01-29T14:46:47.012Z,2.60
2023-01-29T14:49:48.515Z,2.50
2023-01-29T14:52:18.296Z,2.50
2023-01-29T14:54:47.164Z,2.50
2023-01-29T14:57:18.250Z,2.40
2023-01-29T14:59:53.480Z,2.50
2023-01-29T15:02:27.437Z,2.50
2023-01-29T15:05:00.790Z,2.50
2023-01-29T15:07:40.492Z,2.60
2023-01-29T15:10:24.539Z,2.50
2023-01-29T15:12:58.546Z,2.40
2023-01-29T15:15:36.551Z,2.40
2023-01-29T15:18:07.278Z,2.40
2023-01-29T15:20:37.489Z,2.40
2023-01-29T15:23:24.105Z,2.40
2023-01-29T15:25:54.135Z,2.40
2023-01-29T15:28:22.162Z,2.40
2023-01-29T15:30:54.046Z,2.30
2023-01-29T15:33:21.890Z,2.30
2023-01-29T15:36:06.885Z,2.30
2023-01-29T15:38:35.247Z,2.30
2023-01-29T15:41:04.507Z,2.30
2023-01-29T15:43:35.492Z,2.30
2023-01-29T15:46:06.415Z,2.30
2023-01-29T15:48:37.687Z,2.20
2023-01-29T15:51:10.964Z,2.20
2023-01-29T15:53:42.722Z,2.20
2023-01-29T15:56:11.457Z,2.20
2023-01-29T15:58:40.028Z,2.10
2023-01-29T16:01:07.282Z,2.10
2023-01-29T16:03:35.382Z,2.00
2023-01-29T16:06:03.050Z,2.00
2023-01-29T16:08:31.841Z,2.00
2023-01-29T16:11:01.709Z,1.90
2023-01-29T16:13:31.258Z,1.90
2023-01-29T16:15:59.994Z,1.90
2023-01-29T16:18:32.154Z,1.90
2023-01-29T16:21:02.828Z,1.90
2023-01-29T16:23:37.320Z,1.90
2023-01-29T16:26:08.171Z,1.90
2023-01-29T16:28:41.134Z,1.90
2023-01-29T16:31:10.030Z,1.90
2023-01-29T16:33:40.783Z,1.90
2023-01-29T16:36:16.988Z,1.90
2023-01-29T16:38:49.056Z,1.90
2023-01-29T16:41:28.716Z,2.00
2023-01-29T16:43:57.544Z,2.00
2023-01-29T16:46:31.972Z,2.00
2023-01-29T16:48:59.343Z,2.00
2023-01-29T16:51:28.942Z,2.00
2023-01-29T16:53:59.441Z,2.00
2023-01-29T16:56:33.004Z,2.00
2023-01-29T16:59:02.073Z,2.00
2023-01-29T17:01:30.479Z,2.00
2023-01-29T17:04:07.523Z,2.00
2023-01-29T17:06:36.571Z,2.10
2023-01-29T17:09:06.999Z,2.10
2023-01-29T17:11:37.654Z,2.10
2023-01-29T17:14:06.809Z,2.20
2023-01-29T17:16:36.053Z,2.10
2023-01-29T17:19:15.157Z,2.10
2023-01-29T17:21:42.440Z,2.10
2023-01-29T17:24:10.925Z,2.00
2023-01-29T17:26:38.815Z,2.10
2023-01-29T17:29:08.197Z,2.10
2023-01-29T17:31:35.658Z,2.10
2023-01-29T17:34:02.892Z,2.10
2023-01-29T17:36:30.330Z,2.10
2023-01-29T17:38:57.350Z,2.10
2023-01-29T17:41:28.736Z,2.10
2023-01-29T17:43:55.639Z,2.10
2023-01-29T17:46:22.759Z,2.10
2023-01-29T17:48:50.405Z,2.10
2023-01-29T17:51:18.304Z,2.00
2023-01-29T17:53:48.536Z,2.00
2023-01-29T17:56:18.062Z,2.10
2023-01-29T17:58:46.929Z,2.00
2023-01-29T18:01:14.031Z,2.00
2023-01-29T18:03:41.371Z,2.10
2023-01-29T18:06:09.880Z,2.00
2023-01-29T18:08:39.868Z,2.00
2023-01-29T18:11:07.227Z,2.00
2023-01-29T18:13:36.383Z,2.00
2023-01-29T18:16:05.338Z,2.00
2023-01-29T18:18:32.783Z,2.10
2023-01-29T18:20:59.638Z,2.00
2023-01-29T18:23:27.786Z,2.10
2023-01-29T18:25:57.701Z,2.00
2023-01-29T18:28:25.435Z,2.00
2023-01-29T18:30:52.961Z,2.00
2023-01-29T18:33:23.069Z,2.00
2023-01-29T18:35:50.575Z,2.00
2023-01-29T18:38:18.234Z,2.00
2023-01-29T18:40:45.372Z,1.90
2023-01-29T18:43:13.725Z,1.90
2023-01-29T18:45:40.795Z,1.90
2023-01-29T18:48:08.266Z,1.90
2023-01-29T18:50:36.808Z,1.80
2023-01-29T18:53:04.826Z,1.90
2023-01-29T18:55:31.868Z,2.00
2023-01-29T18:58:27.849Z,2.00
2023-01-29T19:00:48.339Z,1.90
2023-01-29T19:03:16.051Z,2.00
2023-01-29T19:05:44.349Z,2.00
2023-01-29T19:08:11.648Z,2.00
2023-01-29T19:10:39.319Z,2.10
2023-01-29T19:13:10.435Z,2.00
2023-01-29T19:15:41.263Z,2.10
2023-01-29T19:18:08.293Z,2.10
2023-01-29T19:20:35.138Z,2.10
2023-01-29T19:23:03.840Z,2.10
2023-01-29T19:25:30.926Z,2.10
2023-01-29T19:27:58.358Z,2.10
2023-01-29T19:30:25.276Z,2.10
2023-01-29T19:32:53.291Z,2.20
2023-01-29T19:35:20.329Z,2.10
2023-01-29T19:37:47.911Z,2.10
2023-01-29T19:40:16.924Z,2.00
2023-01-29T19:42:44.309Z,1.90
2023-01-29T19:45:11.567Z,1.90
2023-01-29T19:47:39.549Z,1.90
2023-01-29T19:50:07.381Z,1.90
2023-01-29T19:52:51.223Z,1.90
2023-01-29T19:55:21.104Z,1.80
2023-01-29T19:57:48.787Z,1.80
2023-01-29T20:00:17.510Z,1.80
2023-01-29T20:02:45.007Z,1.80
2023-01-29T20:05:13.022Z,1.70
2023-01-29T20:07:42.717Z,1.70
2023-01-29T20:10:17.097Z,1.70
2023-01-29T20:12:46.583Z,1.70
2023-01-29T20:15:14.345Z,1.70
2023-01-29T20:17:41.770Z,1.70
2023-01-29T20:20:10.242Z,1.70
2023-01-29T20:22:37.771Z,1.70
2023-01-29T20:25:05.062Z,1.70
2023-01-29T20:27:32.332Z,1.70
2023-01-29T20:30:00.672Z,1.70
2023-01-29T20:32:28.016Z,1.70
2023-01-29T20:34:55.011Z,1.70
2023-01-29T20:37:22.245Z,1.80
2023-01-29T20:39:49.184Z,1.70
2023-01-29T20:42:16.356Z,1.60
2023-01-29T20:44:43.361Z,1.60
2023-01-29T20:47:12.483Z,1.60
2023-01-29T20:49:39.493Z,1.60
2023-01-29T20:52:07.877Z,1.60
2023-01-29T20:54:34.852Z,1.60
2023-01-29T20:57:02.322Z,1.60
2023-01-29T20:59:29.403Z,1.60
2023-01-29T21:01:56.750Z,1.60
2023-01-29T21:04:25.557Z,1.60
2023-01-29T21:06:52.947Z,1.70
2023-01-29T21:09:20.483Z,1.70
2023-01-29T21:11:48.020Z,1.70
2023-01-29T21:14:14.957Z,1.80
2023-01-29T21:16:42.312Z,1.70
2023-01-29T21:19:09.981Z,1.70
2023-01-29T21:21:38.602Z,1.80
2023-01-29T21:24:06.074Z,1.80
2023-01-29T21:26:33.432Z,1.80
2023-01-29T21:29:00.419Z,1.80
2023-01-29T21:31:27.824Z,1.70
2023-01-29T21:33:54.748Z,1.80
2023-01-29T21:36:22.016Z,1.80
2023-01-29T21:38:50.252Z,1.70
2023-01-29T21:41:17.519Z,1.70
2023-01-29T21:43:45.060Z,1.70
2023-01-29T21:46:12.546Z,1.80
2023-01-29T21:48:40.312Z,1.80
2023-01-29T21:51:07.990Z,1.70
2023-01-29T21:53:36.655Z,1.70
2023-01-29T21:56:06.470Z,1.70
2023-01-29T21:58:33.761Z,1.70
2023-01-29T22:01:35.926Z,1.70
2023-01-29T22:03:48.055Z,1.60
2023-01-29T22:06:15.421Z,1.60
2023-01-29T22:08:42.382Z,1.70
2023-01-29T22:11:11.345Z,1.60
2023-01-29T22:13:38.517Z,1.60
2023-01-29T22:16:06.485Z,1.60
2023-01-29T22:18:33.617Z,1.60
2023-01-29T22:21:03.334Z,1.60
2023-01-29T22:23:30.777Z,1.60
2023-01-29T22:26:02.925Z,1.60
2023-01-29T22:28:31.273Z,1.60
2023-01-29T22:31:01.818Z,1.70
2023-01-29T22:33:28.801Z,1.70
2023-01-29T22:35:56.800Z,1.70
2023-01-29T22:38:23.994Z,1.70
2023-01-29T22:40:51.539Z,1.80
2023-01-29T22:43:18.710Z,1.80
2023-01-29T22:45:48.036Z,1.80
2023-01-29T22:48:15.441Z,1.80
2023-01-29T22:50:42.732Z,1.80
2023-01-29T22:53:09.727Z,1.90
2023-01-29T22:55:37.306Z,1.90
2023-01-29T22:58:04.228Z,1.90
2023-01-29T23:00:31.353Z,1.90
2023-01-29T23:02:59.728Z,1.90
2023-01-29T23:05:27.075Z,1.90
2023-01-29T23:07:54.046Z,1.90
2023-01-29T23:10:21.339Z,1.90
2023-01-29T23:12:48.357Z,1.90
2023-01-29T23:15:15.733Z,1.90
2023-01-29T23:17:42.650Z,2.00
2023-01-29T23:20:12.856Z,2.00
2023-01-29T23:22:39.896Z,2.00
2023-01-29T23:25:07.859Z,2.10
2023-01-29T23:27:34.967Z,2.00
2023-01-29T23:30:02.283Z,2.10
2023-01-29T23:32:29.439Z,2.10
2023-01-29T23:34:56.780Z,2.20
2023-01-29T23:37:25.451Z,2.20
2023-01-29T23:39:52.860Z,2.30
2023-01-29T23:42:19.870Z,2.30
2023-01-29T23:44:47.159Z,2.30
2023-01-29T23:47:14.176Z,2.30
2023-01-29T23:49:41.416Z,2.20
2023-01-29T23:52:08.431Z,2.20
2023-01-29T23:54:36.879Z,2.20
2023-01-29T23:57:03.948Z,2.30
2023-01-29T23:59:31.198Z,2.30
